createdAt,value
2022-10-19T00:01:18.401Z,95641.59
2022-10-19T00:06:26.397Z,95622.50
2022-10-19T00:08:55.876Z,95632.56
2022-10-19T00:11:23.955Z,95645.16
2022-10-19T00:13:51.666Z,95640.84
2022-10-19T00:16:18.918Z,95631.00
2022-10-19T00:18:46.673Z,95647.13
2022-10-19T00:21:16.182Z,95631.81
2022-10-19T00:23:44.034Z,95644.38
2022-10-19T00:26:13.088Z,95632.63
2022-10-19T00:28:39.934Z,95631.72
2022-10-19T00:31:10.393Z,95606.88
2022-10-19T00:33:37.237Z,95623.94
2022-10-19T00:36:05.239Z,95596.91
2022-10-19T00:38:32.736Z,95614.53
2022-10-19T00:41:00.011Z,95604.88
2022-10-19T00:43:31.290Z,95620.81
2022-10-19T00:45:57.977Z,95622.00
2022-10-19T00:48:28.107Z,95631.84
2022-10-19T00:50:57.300Z,95631.03
2022-10-19T00:53:27.235Z,95595.06
2022-10-19T00:55:54.415Z,95604.44
2022-10-19T00:58:21.426Z,95616.72
2022-10-19T01:00:48.257Z,95621.50
2022-10-19T01:03:16.396Z,95615.22
2022-10-19T01:05:43.549Z,95599.31
2022-10-19T01:08:12.089Z,95602.31
2022-10-19T01:10:50.023Z,95588.72
2022-10-19T01:13:19.912Z,95605.94
2022-10-19T01:16:15.816Z,95586.09
2022-10-19T01:19:27.385Z,95609.22
2022-10-19T01:22:19.897Z,95586.84
2022-10-19T01:25:17.727Z,95579.63
2022-10-19T01:27:53.266Z,95604.22
2022-10-19T01:30:47.037Z,95615.66
2022-10-19T01:33:31.617Z,95615.13
2022-10-19T01:36:09.289Z,95608.09
2022-10-19T01:39:10.660Z,95576.56
2022-10-19T01:41:55.402Z,95567.97
2022-10-19T01:44:29.742Z,95613.63
2022-10-19T01:47:06.975Z,95612.78
2022-10-19T01:49:43.679Z,95587.28
2022-10-19T01:52:15.377Z,95582.66
2022-10-19T01:54:47.718Z,95599.31
2022-10-19T01:57:20.082Z,95593.84
2022-10-19T01:59:49.270Z,95591.44
2022-10-19T02:02:18.365Z,95581.97
2022-10-19T02:04:47.141Z,95592.16
2022-10-19T02:07:14.208Z,95569.34
2022-10-19T02:09:41.387Z,95596.97
2022-10-19T02:12:11.068Z,95593.97
2022-10-19T02:14:46.865Z,95594.28
2022-10-19T02:17:17.523Z,95597.09
2022-10-19T02:19:44.381Z,95597.22
2022-10-19T02:22:13.184Z,95577.69
2022-10-19T02:24:40.149Z,95565.03
2022-10-19T02:27:08.522Z,95570.94
2022-10-19T02:29:37.338Z,95548.75
2022-10-19T02:32:04.901Z,95580.13
2022-10-19T02:34:32.670Z,95587.84
2022-10-19T02:36:59.472Z,95571.97
2022-10-19T02:39:26.425Z,95545.56
2022-10-19T02:41:53.110Z,95551.94
2022-10-19T02:44:24.661Z,95570.00
2022-10-19T02:46:57.379Z,95560.94
2022-10-19T02:49:25.131Z,95564.06
2022-10-19T02:52:01.256Z,95571.72
2022-10-19T02:54:28.566Z,95568.22
2022-10-19T02:56:56.218Z,95570.56
2022-10-19T02:59:23.461Z,95555.38
2022-10-19T03:01:50.434Z,95578.44
2022-10-19T03:04:18.193Z,95568.91
2022-10-19T03:06:44.932Z,95568.31
2022-10-19T03:09:12.058Z,95578.09
2022-10-19T03:11:38.919Z,95548.28
2022-10-19T03:14:05.705Z,95562.47
2022-10-19T03:16:33.053Z,95547.53
2022-10-19T03:19:00.046Z,95555.44
2022-10-19T03:21:27.105Z,95525.50
2022-10-19T03:23:54.519Z,95558.59
2022-10-19T03:26:21.564Z,95558.69
2022-10-19T03:28:48.255Z,95565.13
2022-10-19T03:31:15.558Z,95551.56
2022-10-19T03:33:42.401Z,95551.56
2022-10-19T03:36:23.997Z,95551.53
2022-10-19T03:38:52.665Z,95563.50
2022-10-19T03:41:20.663Z,95541.41
2022-10-19T03:43:48.212Z,95539.38
2022-10-19T03:46:15.844Z,95523.22
2022-10-19T03:48:43.245Z,95542.34
2022-10-19T03:51:13.342Z,95543.53
2022-10-19T03:53:40.858Z,95550.22
2022-10-19T03:56:13.225Z,95546.28
2022-10-19T03:58:41.050Z,95542.41
2022-10-19T04:01:15.558Z,95551.88
2022-10-19T04:03:42.771Z,95537.66
2022-10-19T04:06:15.787Z,95543.59
2022-10-19T04:08:48.225Z,95502.72
2022-10-19T04:11:17.144Z,95495.78
2022-10-19T04:13:43.854Z,95519.19
2022-10-19T04:16:13.820Z,95554.13
2022-10-19T04:18:40.553Z,95514.56
2022-10-19T04:21:07.302Z,95505.63
2022-10-19T04:23:35.949Z,95536.97
2022-10-19T04:26:05.968Z,95542.44
2022-10-19T04:28:34.590Z,95541.28
2022-10-19T04:31:05.635Z,95538.13
2022-10-19T04:33:34.312Z,95528.69
2022-10-19T04:36:03.403Z,95495.09
2022-10-19T04:38:30.255Z,95529.84
2022-10-19T04:41:03.294Z,95527.41
2022-10-19T04:43:30.050Z,95530.25
2022-10-19T04:45:56.736Z,95530.66
2022-10-19T04:48:23.556Z,95499.81
2022-10-19T04:50:54.000Z,95519.25
2022-10-19T04:53:20.884Z,95523.22
2022-10-19T04:55:48.466Z,95514.91
2022-10-19T04:58:15.283Z,95510.09
2022-10-19T05:00:42.036Z,95523.63
2022-10-19T05:03:08.773Z,95520.47
2022-10-19T05:05:35.795Z,95513.81
2022-10-19T05:08:03.446Z,95489.50
2022-10-19T05:10:30.332Z,95505.06
2022-10-19T05:12:57.115Z,95498.41
2022-10-19T05:15:23.817Z,95486.34
2022-10-19T05:17:50.529Z,95489.19
2022-10-19T05:20:17.854Z,95509.88
2022-10-19T05:22:44.551Z,95507.94
2022-10-19T05:25:11.237Z,95509.84
2022-10-19T05:27:37.991Z,95502.72
2022-10-19T05:30:06.508Z,95501.94
2022-10-19T05:32:34.010Z,95511.88
2022-10-19T05:35:00.762Z,95464.69
2022-10-19T05:37:27.882Z,95492.06
2022-10-19T05:39:55.014Z,95481.88
2022-10-19T05:42:21.720Z,95496.50
2022-10-19T05:44:49.214Z,95506.41
2022-10-19T05:47:15.936Z,95521.28
2022-10-19T05:49:42.682Z,95495.78
2022-10-19T05:52:09.419Z,95498.13
2022-10-19T05:54:37.137Z,95490.28
2022-10-19T05:57:04.525Z,95472.69
2022-10-19T05:59:31.301Z,95473.25
2022-10-19T06:01:58.618Z,95485.09
2022-10-19T06:04:25.562Z,95506.75
2022-10-19T06:06:52.261Z,95511.06
2022-10-19T06:09:20.227Z,95514.25
2022-10-19T06:11:48.443Z,95516.97
2022-10-19T06:14:17.075Z,95513.41
2022-10-19T06:16:46.064Z,95505.97
2022-10-19T06:19:13.416Z,95487.00
2022-10-19T06:21:43.278Z,95520.50
2022-10-19T06:24:13.078Z,95512.22
2022-10-19T06:26:40.031Z,95525.97
2022-10-19T06:29:06.738Z,95513.41
2022-10-19T06:31:36.452Z,95492.13
2022-10-19T06:34:04.066Z,95500.47
2022-10-19T06:36:31.815Z,95529.69
2022-10-19T06:39:00.039Z,95497.84
2022-10-19T06:41:26.846Z,95516.56
2022-10-19T06:43:55.003Z,95509.91
2022-10-19T06:46:24.114Z,95520.88
2022-10-19T06:48:56.391Z,95506.38
2022-10-19T06:51:25.494Z,95519.31
2022-10-19T06:53:56.546Z,95509.47
2022-10-19T06:56:24.763Z,95541.53
2022-10-19T06:58:51.858Z,95535.66
2022-10-19T07:01:19.839Z,95540.63
2022-10-19T07:03:46.602Z,95530.56
2022-10-19T07:06:14.415Z,95523.22
2022-10-19T07:08:42.547Z,95515.03
2022-10-19T07:11:11.982Z,95543.53
2022-10-19T07:13:39.518Z,95511.88
2022-10-19T07:16:15.951Z,95498.34
2022-10-19T07:18:47.055Z,95516.19
2022-10-19T07:21:15.766Z,95556.69
2022-10-19T07:23:47.161Z,95525.59
2022-10-19T07:26:17.301Z,95511.47
2022-10-19T07:28:46.618Z,95530.66
2022-10-19T07:31:18.302Z,95524.03
2022-10-19T07:33:46.960Z,95529.81
2022-10-19T07:36:14.241Z,95522.00
2022-10-19T07:38:41.218Z,95539.44
2022-10-19T07:41:13.768Z,95529.88
2022-10-19T07:43:42.363Z,95529.84
2022-10-19T07:46:12.962Z,95508.38
2022-10-19T07:48:40.253Z,95515.75
2022-10-19T07:51:09.613Z,95510.63
2022-10-19T07:53:37.269Z,95537.38
2022-10-19T07:56:12.739Z,95554.19
2022-10-19T07:58:40.159Z,95549.38
2022-10-19T08:01:09.871Z,95547.63
2022-10-19T08:06:24.956Z,95548.50
2022-10-19T08:08:53.069Z,95546.09
2022-10-19T08:11:25.072Z,95546.84
2022-10-19T08:13:52.590Z,95534.91
2022-10-19T08:16:27.637Z,95550.81
2022-10-19T08:18:58.328Z,95529.50
2022-10-19T08:21:26.996Z,95543.94
2022-10-19T08:23:53.996Z,95538.13
2022-10-19T08:26:21.401Z,95542.00
2022-10-19T08:28:48.910Z,95558.59
2022-10-19T08:31:21.307Z,95540.00
2022-10-19T08:33:50.733Z,95537.69
2022-10-19T08:36:20.102Z,95514.91
2022-10-19T08:38:49.241Z,95506.59
2022-10-19T08:41:28.643Z,95540.47
2022-10-19T08:44:21.196Z,95518.13
2022-10-19T08:46:54.140Z,95541.63
2022-10-19T08:49:25.589Z,95533.03
2022-10-19T08:51:59.638Z,95536.94
2022-10-19T08:54:37.911Z,95556.41
2022-10-19T08:57:26.162Z,95526.34
2022-10-19T09:00:18.251Z,95522.44
2022-10-19T09:02:51.245Z,95548.50
2022-10-19T09:05:30.306Z,95511.78
2022-10-19T09:07:57.267Z,95501.78
2022-10-19T09:10:29.290Z,95524.78
2022-10-19T09:13:41.508Z,95522.47
2022-10-19T09:16:15.839Z,95543.94
2022-10-19T09:18:43.895Z,95540.72
2022-10-19T09:21:50.307Z,95483.94
2022-10-19T09:24:31.936Z,95520.09
2022-10-19T09:27:02.707Z,95520.34
2022-10-19T09:29:32.322Z,95517.25
2022-10-19T09:32:03.734Z,95512.16
2022-10-19T09:34:34.586Z,95509.28
2022-10-19T09:37:02.497Z,95544.81
2022-10-19T09:39:31.114Z,95544.38
2022-10-19T09:41:59.553Z,95535.38
2022-10-19T09:44:27.570Z,95529.09
2022-10-19T09:47:23.690Z,95563.31
2022-10-19T09:49:51.734Z,95564.72
2022-10-19T09:52:43.530Z,95536.16
2022-10-19T09:55:13.314Z,95532.63
2022-10-19T09:57:50.808Z,95545.53
2022-10-19T10:00:23.426Z,95529.91
2022-10-19T10:02:53.110Z,95563.03
2022-10-19T10:05:29.763Z,95542.03
2022-10-19T10:07:56.599Z,95542.81
2022-10-19T10:10:30.499Z,95527.56
2022-10-19T10:13:00.952Z,95546.75
2022-10-19T10:15:35.866Z,95536.16
2022-10-19T10:18:03.619Z,95540.88
2022-10-19T10:20:35.971Z,95547.94
2022-10-19T10:23:06.133Z,95547.81
2022-10-19T10:25:36.514Z,95527.94
2022-10-19T10:28:22.051Z,95545.50
2022-10-19T10:30:53.467Z,95531.06
2022-10-19T10:33:40.658Z,95543.03
2022-10-19T10:36:12.382Z,95502.19
2022-10-19T10:38:50.302Z,95532.63
2022-10-19T10:41:24.060Z,95557.22
2022-10-19T10:44:04.957Z,95519.72
2022-10-19T10:46:55.647Z,95542.13
2022-10-19T10:49:44.167Z,95513.28
2022-10-19T10:52:14.310Z,95518.91
2022-10-19T10:54:41.396Z,95507.84
2022-10-19T10:57:16.727Z,95518.53
2022-10-19T11:00:07.919Z,95533.53
2022-10-19T11:02:46.765Z,95514.22
2022-10-19T11:05:30.609Z,95486.16
2022-10-19T11:08:26.700Z,95477.25
2022-10-19T11:11:07.526Z,95502.03
2022-10-19T11:13:43.482Z,95488.97
2022-10-19T11:16:16.689Z,95473.06
2022-10-19T11:18:52.545Z,95475.81
2022-10-19T11:21:42.217Z,95488.34
2022-10-19T11:24:22.051Z,95500.00
2022-10-19T11:27:15.835Z,95447.41
2022-10-19T11:29:45.689Z,95465.16
2022-10-19T11:32:35.443Z,95469.91
2022-10-19T11:35:17.651Z,95475.69
2022-10-19T11:38:20.051Z,95500.13
2022-10-19T11:41:32.162Z,95480.50
2022-10-19T11:44:28.061Z,95489.13
2022-10-19T11:47:19.309Z,95470.72
2022-10-19T11:50:31.056Z,95472.28
2022-10-19T11:53:08.661Z,95456.50
2022-10-19T11:56:10.741Z,95480.78
2022-10-19T11:58:59.365Z,95451.16
2022-10-19T12:01:38.294Z,95420.16
2022-10-19T12:04:17.106Z,95473.31
2022-10-19T12:07:13.515Z,95458.97
2022-10-19T12:09:49.387Z,95443.69
2022-10-19T12:12:16.060Z,95422.97
2022-10-19T12:14:47.944Z,95468.25
2022-10-19T12:17:23.807Z,95457.28
2022-10-19T12:19:56.411Z,95452.91
2022-10-19T12:22:27.832Z,95424.91
2022-10-19T12:24:57.830Z,95394.97
2022-10-19T12:27:35.419Z,95437.81
2022-10-19T12:30:09.390Z,95447.91
2022-10-19T12:32:44.062Z,95442.34
2022-10-19T12:35:37.607Z,95442.31
2022-10-19T12:38:18.992Z,95452.88
2022-10-19T12:40:56.433Z,95391.88
2022-10-19T12:43:42.669Z,95425.81
2022-10-19T12:46:42.330Z,95412.28
2022-10-19T12:49:30.712Z,95413.50
2022-10-19T12:51:59.806Z,95395.53
2022-10-19T12:54:32.681Z,95390.44
2022-10-19T12:57:01.915Z,95400.22
2022-10-19T12:59:37.667Z,95408.09
2022-10-19T13:02:29.844Z,95360.34
2022-10-19T13:04:56.771Z,95407.44
2022-10-19T13:07:26.521Z,95376.72
2022-10-19T13:10:02.071Z,95384.19
2022-10-19T13:12:41.529Z,95423.97
2022-10-19T13:15:33.930Z,95404.81
2022-10-19T13:18:41.918Z,95393.69
2022-10-19T13:21:09.072Z,95387.34
2022-10-19T13:23:42.039Z,95384.00
2022-10-19T13:26:32.312Z,95400.78
2022-10-19T13:28:59.117Z,95383.19
2022-10-19T13:31:29.612Z,95366.81
2022-10-19T13:33:57.812Z,95396.44
2022-10-19T13:36:25.506Z,95375.44
2022-10-19T13:39:02.710Z,95359.75
2022-10-19T13:41:39.318Z,95386.44
2022-10-19T13:44:09.294Z,95355.47
2022-10-19T13:46:44.445Z,95372.75
2022-10-19T13:49:18.124Z,95384.34
2022-10-19T13:52:25.904Z,95356.63
2022-10-19T13:54:53.243Z,95332.50
2022-10-19T13:57:41.800Z,95287.41
2022-10-19T14:00:16.607Z,95349.97
2022-10-19T14:03:11.631Z,95311.63
2022-10-19T14:05:42.007Z,95312.72
2022-10-19T14:08:35.031Z,95334.84
2022-10-19T14:11:46.872Z,95331.31
2022-10-19T14:14:15.946Z,95304.06
2022-10-19T14:16:59.821Z,95318.34
2022-10-19T14:19:52.636Z,95332.13
2022-10-19T14:22:26.137Z,95304.47
2022-10-19T14:25:01.308Z,95294.56
2022-10-19T14:27:28.358Z,95351.84
2022-10-19T14:29:55.413Z,95337.56
2022-10-19T14:32:28.277Z,95322.31
2022-10-19T14:35:05.980Z,95311.75
2022-10-19T14:37:33.282Z,95325.00
2022-10-19T14:40:26.415Z,95301.19
2022-10-19T14:42:57.238Z,95292.94
2022-10-19T14:45:32.631Z,95333.38
2022-10-19T14:48:01.262Z,95322.25
2022-10-19T14:50:30.502Z,95289.38
2022-10-19T14:53:22.542Z,95268.03
2022-10-19T14:55:54.880Z,95269.94
2022-10-19T14:58:25.026Z,95278.47
2022-10-19T15:00:54.019Z,95306.66
2022-10-19T15:03:27.206Z,95320.75
2022-10-19T15:06:03.174Z,95288.25
2022-10-19T15:08:37.416Z,95294.09
2022-10-19T15:11:06.856Z,95303.84
2022-10-19T15:13:40.875Z,95244.34
2022-10-19T15:16:29.461Z,95248.25
2022-10-19T15:18:56.252Z,95292.94
2022-10-19T15:21:23.354Z,95306.22
2022-10-19T15:23:52.459Z,95286.66
2022-10-19T15:26:29.846Z,95314.72
2022-10-19T15:29:10.210Z,95307.19
2022-10-19T15:31:36.938Z,95263.50
2022-10-19T15:34:05.419Z,95274.97
2022-10-19T15:36:33.097Z,95320.34
2022-10-19T15:39:18.175Z,95301.59
2022-10-19T15:41:52.058Z,95297.31
2022-10-19T15:44:42.181Z,95260.38
2022-10-19T15:47:15.426Z,95302.19
2022-10-19T15:49:42.052Z,95307.31
2022-10-19T15:52:29.969Z,95263.22
2022-10-19T15:54:58.853Z,95282.69
2022-10-19T15:57:30.777Z,95289.97
2022-10-19T15:59:59.902Z,95285.03
2022-10-19T16:02:27.123Z,95270.00
2022-10-19T16:04:55.717Z,95286.97
2022-10-19T16:07:29.306Z,95273.06
2022-10-19T16:09:57.385Z,95274.06
2022-10-19T16:12:29.143Z,95272.47
2022-10-19T16:14:59.370Z,95300.66
2022-10-19T16:17:28.075Z,95290.94
2022-10-19T16:19:57.018Z,95293.84
2022-10-19T16:22:26.300Z,95261.28
2022-10-19T16:24:54.927Z,95271.94
2022-10-19T16:27:21.789Z,95283.69
2022-10-19T16:29:48.522Z,95267.03
2022-10-19T16:32:15.501Z,95294.66
2022-10-19T16:34:42.277Z,95285.81
2022-10-19T16:37:09.128Z,95284.78
2022-10-19T16:39:36.410Z,95298.56
2022-10-19T16:42:03.332Z,95291.31
2022-10-19T16:44:30.222Z,95270.19
2022-10-19T16:46:58.230Z,95256.56
2022-10-19T16:49:26.276Z,95278.78
2022-10-19T16:51:56.337Z,95275.94
2022-10-19T16:54:26.930Z,95267.94
2022-10-19T16:56:56.161Z,95271.84
2022-10-19T16:59:22.919Z,95259.59
2022-10-19T17:01:49.902Z,95262.81
2022-10-19T17:04:20.231Z,95236.97
2022-10-19T17:06:47.031Z,95289.38
2022-10-19T17:09:40.261Z,95278.47
2022-10-19T17:12:00.846Z,95255.25
2022-10-19T17:14:27.715Z,95277.72
2022-10-19T17:16:55.191Z,95257.25
2022-10-19T17:19:22.946Z,95304.97
2022-10-19T17:21:49.930Z,95273.81
2022-10-19T17:24:21.968Z,95276.91
2022-10-19T17:26:51.045Z,95290.34
2022-10-19T17:29:18.263Z,95262.69
2022-10-19T17:31:45.375Z,95202.69
2022-10-19T17:34:12.411Z,95252.09
2022-10-19T17:36:44.901Z,95226.94
2022-10-19T17:39:17.908Z,95275.75
2022-10-19T17:41:46.284Z,95281.63
2022-10-19T17:44:13.812Z,95237.88
2022-10-19T17:46:41.972Z,95262.59
2022-10-19T17:49:10.729Z,95219.22
2022-10-19T17:51:38.869Z,95255.28
2022-10-19T17:54:10.349Z,95230.66
2022-10-19T17:56:38.967Z,95276.84
2022-10-19T17:59:07.966Z,95255.47
2022-10-19T18:01:35.163Z,95251.75
2022-10-19T18:04:01.898Z,95231.78
2022-10-19T18:06:34.050Z,95213.94
2022-10-19T18:09:02.730Z,95248.47
2022-10-19T18:11:36.032Z,95236.66
2022-10-19T18:14:03.691Z,95232.47
2022-10-19T18:16:38.763Z,95259.25
2022-10-19T18:19:06.722Z,95212.63
2022-10-19T18:21:38.638Z,95243.38
2022-10-19T18:24:07.460Z,95263.13
2022-10-19T18:26:35.899Z,95244.41
2022-10-19T18:29:15.381Z,95258.53
2022-10-19T18:31:42.655Z,95251.94
2022-10-19T18:34:14.189Z,95232.97
2022-10-19T18:36:42.343Z,95242.19
2022-10-19T18:39:12.383Z,95279.78
2022-10-19T18:41:41.330Z,95297.28
2022-10-19T18:44:12.285Z,95277.28
2022-10-19T18:46:39.244Z,95232.03
2022-10-19T18:49:08.224Z,95264.63
2022-10-19T18:51:35.628Z,95254.38
2022-10-19T18:54:02.471Z,95275.75
2022-10-19T18:56:29.582Z,95233.59
2022-10-19T18:58:57.644Z,95264.38
2022-10-19T19:01:26.905Z,95193.97
2022-10-19T19:04:00.554Z,95230.47
2022-10-19T19:06:29.469Z,95250.94
2022-10-19T19:09:01.341Z,95192.72
2022-10-19T19:11:35.954Z,95246.66
2022-10-19T19:14:18.081Z,95226.31
2022-10-19T19:16:45.804Z,95238.25
2022-10-19T19:19:15.535Z,95262.03
2022-10-19T19:21:44.659Z,95239.97
2022-10-19T19:24:14.904Z,95248.72
2022-10-19T19:26:45.100Z,95200.03
2022-10-19T19:29:12.840Z,95194.66
2022-10-19T19:31:39.711Z,95181.34
2022-10-19T19:34:07.791Z,95223.63
2022-10-19T19:36:34.635Z,95175.88
2022-10-19T19:39:01.826Z,95200.94
2022-10-19T19:41:30.777Z,95201.06
2022-10-19T19:43:59.009Z,95205.75
2022-10-19T19:46:27.128Z,95159.22
2022-10-19T19:49:01.010Z,95190.69
2022-10-19T19:51:29.213Z,95201.94
2022-10-19T19:53:56.183Z,95188.00
2022-10-19T19:56:23.226Z,95199.00
2022-10-19T19:58:54.975Z,95185.38
2022-10-19T20:01:22.301Z,95206.28
2022-10-19T20:03:49.196Z,95171.41
2022-10-19T20:06:20.777Z,95198.19
2022-10-19T20:08:50.506Z,95197.66
2022-10-19T20:11:17.675Z,95202.41
2022-10-19T20:13:45.998Z,95217.63
2022-10-19T20:16:18.575Z,95191.75
2022-10-19T20:18:48.132Z,95194.66
2022-10-19T20:21:15.930Z,95213.19
2022-10-19T20:26:24.536Z,95131.22
2022-10-19T20:28:51.963Z,95187.22
2022-10-19T20:31:19.584Z,95180.84
2022-10-19T20:33:49.730Z,95183.25
2022-10-19T20:36:23.046Z,95208.88
2022-10-19T20:38:55.284Z,95204.72
2022-10-19T20:41:24.036Z,95163.19
2022-10-19T20:43:51.720Z,95161.06
2022-10-19T20:46:22.270Z,95166.03
2022-10-19T20:48:50.135Z,95173.06
2022-10-19T20:51:26.027Z,95183.53
2022-10-19T20:53:57.657Z,95205.69
2022-10-19T20:56:31.243Z,95183.34
2022-10-19T20:59:00.621Z,95199.50
2022-10-19T21:01:29.214Z,95174.59
2022-10-19T21:03:58.953Z,95158.03
2022-10-19T21:06:28.675Z,95168.84
2022-10-19T21:08:56.456Z,95203.91
2022-10-19T21:11:33.264Z,95188.94
2022-10-19T21:14:02.417Z,95188.47
2022-10-19T21:16:37.832Z,95194.44
2022-10-19T21:19:08.091Z,95191.72
2022-10-19T21:21:37.517Z,95160.91
2022-10-19T21:24:06.388Z,95186.66
2022-10-19T21:26:35.168Z,95204.75
2022-10-19T21:29:03.790Z,95195.78
2022-10-19T21:31:30.867Z,95211.19
2022-10-19T21:33:58.619Z,95198.72
2022-10-19T21:36:25.283Z,95151.09
2022-10-19T21:38:52.061Z,95201.06
2022-10-19T21:41:25.356Z,95195.44
2022-10-19T21:43:54.766Z,95185.28
2022-10-19T21:46:22.934Z,95189.72
2022-10-19T21:48:50.398Z,95163.38
2022-10-19T21:51:17.075Z,95184.03
2022-10-19T21:53:44.590Z,95191.50
2022-10-19T21:56:11.500Z,95177.69
2022-10-19T21:58:38.241Z,95164.31
2022-10-19T22:01:05.955Z,95186.69
2022-10-19T22:03:32.855Z,95176.34
2022-10-19T22:06:00.170Z,95197.19
2022-10-19T22:08:28.534Z,95186.00
2022-10-19T22:10:55.565Z,95153.38
2022-10-19T22:13:22.336Z,95157.63
2022-10-19T22:15:49.126Z,95150.41
2022-10-19T22:18:15.965Z,95117.78
2022-10-19T22:20:43.447Z,95111.19
2022-10-19T22:23:10.143Z,95097.97
2022-10-19T22:25:36.909Z,95100.59
2022-10-19T22:28:03.735Z,95149.81
2022-10-19T22:30:30.538Z,95126.66
2022-10-19T22:32:57.744Z,95132.63
2022-10-19T22:35:25.190Z,95104.91
2022-10-19T22:37:51.950Z,95071.91
2022-10-19T22:40:18.761Z,95091.00
2022-10-19T22:42:45.451Z,95086.47
2022-10-19T22:45:12.432Z,95099.00
2022-10-19T22:47:39.351Z,95046.75
2022-10-19T22:50:07.428Z,95070.31
2022-10-19T22:52:34.337Z,95042.47
2022-10-19T22:55:01.329Z,95051.44
2022-10-19T22:57:28.824Z,95051.16
2022-10-19T22:59:55.637Z,95025.34
2022-10-19T23:02:22.342Z,95085.88
2022-10-19T23:04:49.078Z,95085.22
2022-10-19T23:07:15.807Z,95060.69
2022-10-19T23:09:43.070Z,95095.53
2022-10-19T23:12:10.482Z,95084.84
2022-10-19T23:14:37.204Z,95111.00
2022-10-19T23:17:03.906Z,95072.94
2022-10-19T23:19:30.591Z,95122.78
2022-10-19T23:21:57.247Z,95087.81
2022-10-19T23:24:24.250Z,95054.59
2022-10-19T23:26:51.009Z,95064.28
2022-10-19T23:29:17.875Z,95120.19
2022-10-19T23:31:45.505Z,95098.13
2022-10-19T23:34:12.162Z,95124.47
2022-10-19T23:36:38.914Z,95064.56
2022-10-19T23:39:05.720Z,95105.69
2022-10-19T23:41:33.051Z,95129.16
2022-10-19T23:44:00.423Z,95109.38
2022-10-19T23:46:27.203Z,95106.81
2022-10-19T23:48:53.892Z,95128.91
2022-10-19T23:51:21.955Z,95086.47
2022-10-19T23:53:50.401Z,95083.97
2022-10-19T23:56:23.050Z,95102.50
2022-10-19T23:58:50.609Z,95100.41
